Time;durP1;ratioP1;P1;durP2;ratioP2;P2;SDS_P1;SDS_P2;PMS_P1;PMS_P2;Temp;Humidity;BMP_temperature;BMP_pressure;BME280_temperature;BME280_humidity;BME280_pressure;Samples;Min_cycle;Max_cycle;Signal;HPM_P1;HPM_P2
2021/08/26 00:00:08;;;;;;;4.97;1.90;;;;;;;15.61;82.23;100441.88;5010988;28;20203;-70
2021/08/26 00:08:04;;;;;;;4.57;1.93;;;;;;;15.52;81.84;100442.66;5011501;28;20247;-70
2021/08/26 00:10:31;;;;;;;3.53;1.50;;;;;;;15.47;81.44;100444.88;5006309;28;20227;-71
2021/08/26 00:12:59;;;;;;;5.80;2.33;;;;;;;15.46;81.62;100453.91;5011852;28;20214;-71
2021/08/26 00:15:26;;;;;;;2.97;1.70;;;;;;;15.41;81.01;100448.94;5010266;28;20203;-71
2021/08/26 00:17:52;;;;;;;3.10;1.90;;;;;;;15.40;81.18;100449.09;5006309;28;20215;-71
2021/08/26 00:20:19;;;;;;;6.07;2.20;;;;;;;15.40;81.25;100446.41;5012809;28;20226;-71
2021/08/26 00:22:45;;;;;;;5.20;1.63;;;;;;;15.40;81.15;100446.41;5002984;28;20629;-71
2021/08/26 00:25:13;;;;;;;5.53;2.30;;;;;;;15.40;81.50;100449.09;5007901;28;20211;-71
2021/08/26 00:27:40;;;;;;;4.83;1.77;;;;;;;15.38;81.24;100451.91;5012813;28;20207;-71
2021/08/26 00:30:07;;;;;;;5.47;2.00;;;;;;;15.36;81.62;100445.81;5011127;28;20687;-70
2021/08/26 00:32:34;;;;;;;5.27;2.63;;;;;;;15.35;81.41;100437.91;5010429;28;20207;-71
2021/08/26 00:35:00;;;;;;;6.73;2.30;;;;;;;15.36;81.27;100442.28;5012217;28;20206;-71
2021/08/26 00:37:27;;;;;;;5.83;2.47;;;;;;;15.34;81.40;100437.06;5011115;28;20210;-71
2021/08/26 00:39:53;;;;;;;4.67;2.30;;;;;;;15.33;81.50;100434.50;5009833;28;20576;-71
2021/08/26 00:42:22;;;;;;;6.47;2.73;;;;;;;15.32;81.48;100435.47;5008510;28;20211;-71
2021/08/26 00:44:49;;;;;;;6.17;2.50;;;;;;;15.31;81.45;100442.69;5009938;28;20282;-71
2021/08/26 00:47:15;;;;;;;8.20;2.50;;;;;;;15.29;81.48;100432.09;5013312;28;20202;-71
2021/08/26 00:49:42;;;;;;;7.23;2.50;;;;;;;15.28;81.46;100438.44;5010077;28;20762;-71
2021/08/26 00:52:10;;;;;;;7.47;2.67;;;;;;;15.27;81.52;100430.50;5011391;28;20237;-69
2021/08/26 00:54:37;;;;;;;9.33;2.50;;;;;;;15.27;81.64;100428.69;5010563;28;20208;-71
2021/08/26 00:57:04;;;;;;;6.40;2.20;;;;;;;15.29;81.20;100426.72;5011947;28;20204;-71
2021/08/26 00:59:33;;;;;;;8.70;2.90;;;;;;;15.28;81.56;100422.31;5007967;28;20203;-70
2021/08/26 01:02:06;;;;;;;9.53;3.17;;;;;;;15.27;81.25;100426.00;5003585;28;20223;-71
2021/08/26 01:04:36;;;;;;;6.97;2.63;;;;;;;15.28;81.08;100429.53;5002330;28;20215;-71
2021/08/26 01:07:06;;;;;;;5.77;3.03;;;;;;;15.28;81.49;100418.78;5012645;28;20254;-71
2021/08/26 01:09:40;;;;;;;10.17;3.23;;;;;;;15.28;81.31;100419.66;4999658;28;20671;-71
2021/08/26 01:12:09;;;;;;;8.07;2.70;;;;;;;15.29;81.54;100423.19;5007209;28;20222;-71
2021/08/26 01:14:38;;;;;;;6.67;2.90;;;;;;;15.28;81.21;100416.13;5010753;28;20218;-71
2021/08/26 01:17:04;;;;;;;8.00;3.10;;;;;;;15.28;81.13;100424.16;5010752;28;20206;-69
2021/08/26 01:19:31;;;;;;;5.27;2.70;;;;;;;15.28;81.48;100419.66;5015587;28;20206;-70
2021/08/26 01:21:57;;;;;;;6.70;2.53;;;;;;;15.29;81.16;100420.50;5012225;28;20229;-70
2021/08/26 01:24:28;;;;;;;6.97;2.53;;;;;;;15.29;81.27;100413.28;5006620;28;20702;-70
2021/08/26 01:26:59;;;;;;;7.57;2.63;;;;;;;15.29;81.52;100410.63;5006172;28;20254;-71
2021/08/26 01:29:26;;;;;;;9.37;3.20;;;;;;;15.29;81.07;100409.75;5004431;28;20234;-71
2021/08/26 01:31:53;;;;;;;5.77;3.47;;;;;;;15.28;81.39;100406.22;5003662;28;20598;-71
2021/08/26 01:34:21;;;;;;;8.67;2.80;;;;;;;15.26;81.21;100408.19;5005055;28;20214;-71
2021/08/26 01:36:48;;;;;;;7.40;2.73;;;;;;;15.27;81.49;100409.03;5007155;28;20217;-71
2021/08/26 01:39:16;;;;;;;8.63;2.87;;;;;;;15.27;81.26;100406.34;5007696;28;20199;-71
2021/08/26 01:41:45;;;;;;;5.57;2.80;;;;;;;15.26;81.36;100393.94;5013085;28;20234;-70
2021/08/26 01:44:16;;;;;;;6.20;2.57;;;;;;;15.25;81.29;100395.75;5007585;28;20203;-70
2021/08/26 01:46:43;;;;;;;8.17;2.67;;;;;;;15.23;81.12;100403.09;5010542;28;20210;-70
2021/08/26 01:49:09;;;;;;;7.93;2.70;;;;;;;15.21;80.80;100398.88;5009651;28;20222;-71
2021/08/26 01:51:38;;;;;;;7.40;2.50;;;;;;;15.18;80.38;100389.25;5042726;23;20237;-81
2021/08/26 01:54:04;;;;;;;9.40;2.90;;;;;;;15.16;80.36;100380.47;5054342;28;20204;-81
2021/08/26 01:56:31;;;;;;;10.93;2.83;;;;;;;15.13;80.47;100380.72;5050464;28;20219;-81
2021/08/26 01:58:57;;;;;;;10.23;2.97;;;;;;;15.12;79.92;100384.41;5049757;28;20222;-82
2021/08/26 02:01:25;;;;;;;9.03;3.03;;;;;;;15.12;80.02;100381.72;5057772;28;20209;-82
2021/08/26 02:03:52;;;;;;;10.90;3.07;;;;;;;15.10;80.46;100386.34;5049548;28;20208;-82
2021/08/26 02:06:18;;;;;;;6.67;2.63;;;;;;;15.08;80.03;100382.97;5055361;28;20947;-82
2021/08/26 02:08:45;;;;;;;8.57;3.13;;;;;;;15.08;80.15;100391.00;5057708;28;20229;-82
2021/08/26 02:11:12;;;;;;;11.87;3.43;;;;;;;15.09;80.11;100391.84;5063791;28;20208;-81
2021/08/26 02:13:38;;;;;;;9.30;2.97;;;;;;;15.09;80.34;100384.66;5054080;28;20280;-82
2021/08/26 02:16:06;;;;;;;8.37;3.20;;;;;;;15.09;80.03;100387.34;5052138;28;20572;-82
2021/08/26 02:18:34;;;;;;;8.53;2.87;;;;;;;15.08;79.92;100391.00;5053597;28;20231;-81
2021/08/26 02:21:01;;;;;;;8.40;3.10;;;;;;;15.07;80.24;100389.31;5052756;28;20695;-82
2021/08/26 02:23:27;;;;;;;11.33;3.33;;;;;;;15.05;80.51;100385.91;5055522;28;20201;-82
2021/08/26 02:25:54;;;;;;;9.53;3.40;;;;;;;15.07;80.38;100383.94;5047963;28;20296;-81
2021/08/26 02:28:20;;;;;;;9.87;2.90;;;;;;;15.08;80.53;100382.97;5052263;28;20229;-81
2021/08/26 02:30:47;;;;;;;9.00;3.20;;;;;;;15.07;80.71;100377.72;5047274;28;20209;-82
2021/08/26 02:33:13;;;;;;;10.23;3.03;;;;;;;15.06;80.65;100370.66;5060583;28;20213;-83
2021/08/26 02:35:41;;;;;;;8.77;2.97;;;;;;;15.07;80.60;100367.84;5052729;28;20632;-83
2021/08/26 02:38:08;;;;;;;12.50;2.97;;;;;;;15.06;80.88;100374.19;5050161;28;20232;-83
2021/08/26 02:40:34;;;;;;;10.93;3.93;;;;;;;15.05;80.65;100364.44;5042333;28;20209;-82
2021/08/26 02:43:01;;;;;;;8.40;2.67;;;;;;;15.05;80.74;100367.13;5052127;28;20220;-83
2021/08/26 02:45:27;;;;;;;9.97;3.20;;;;;;;15.04;80.70;100370.81;5058753;28;20573;-83
2021/08/26 02:47:54;;;;;;;8.57;3.27;;;;;;;15.04;80.78;100383.38;5056797;28;20226;-83
2021/08/26 02:50:20;;;;;;;10.93;3.23;;;;;;;15.04;80.87;100376.19;5053680;28;20758;-81
2021/08/26 02:52:48;;;;;;;8.43;3.80;;;;;;;15.04;80.73;100372.66;5061434;28;20300;-82
2021/08/26 02:55:15;;;;;;;11.90;3.70;;;;;;;15.02;80.63;100377.28;5056052;28;20228;-81
2021/08/26 02:57:41;;;;;;;9.10;3.40;;;;;;;15.02;80.95;100377.28;5056836;28;20269;-82
2021/08/26 03:00:10;;;;;;;13.57;3.40;;;;;;;15.00;80.60;100374.75;5052008;28;20198;-81
2021/08/26 03:02:36;;;;;;;11.73;3.33;;;;;;;15.00;81.08;100382.78;5048721;28;20675;-81
2021/08/26 03:05:03;;;;;;;16.47;4.40;;;;;;;14.98;81.03;100371.34;5047144;28;20206;-81
2021/08/26 03:07:29;;;;;;;11.10;3.20;;;;;;;14.96;81.01;100365.25;5050502;28;20715;-81
2021/08/26 03:09:57;;;;;;;14.17;4.03;;;;;;;14.96;81.02;100381.34;5053478;28;20229;-82
2021/08/26 03:12:24;;;;;;;17.57;4.33;;;;;;;14.95;81.10;100379.63;5058029;28;20205;-80
2021/08/26 03:14:50;;;;;;;11.90;3.70;;;;;;;14.94;81.20;100378.78;5057222;28;20198;-82
2021/08/26 03:17:17;;;;;;;10.17;4.00;;;;;;;14.94;81.14;100372.56;5053244;28;20225;-81
2021/08/26 03:19:43;;;;;;;14.23;3.93;;;;;;;14.93;80.94;100382.44;5054418;28;20221;-82
2021/08/26 03:22:10;;;;;;;14.43;3.60;;;;;;;14.94;80.98;100377.94;5055033;28;20197;-82
2021/08/26 03:24:36;;;;;;;11.47;3.30;;;;;;;14.92;81.08;100375.38;5056838;28;20204;-81
2021/08/26 03:27:05;;;;;;;13.63;3.80;;;;;;;14.93;81.11;100378.91;5056136;28;20209;-81
2021/08/26 03:29:31;;;;;;;9.83;3.30;;;;;;;14.93;80.85;100376.22;5050437;28;20308;-81
2021/08/26 03:31:58;;;;;;;13.53;4.33;;;;;;;14.91;80.83;100373.69;5055426;28;20561;-81
2021/08/26 03:34:25;;;;;;;19.13;4.53;;;;;;;14.89;81.28;100369.44;5052435;28;20585;-81
2021/08/26 03:36:51;;;;;;;12.73;4.10;;;;;;;14.87;80.96;100368.69;5053934;28;20298;-82
2021/08/26 03:39:18;;;;;;;14.07;4.87;;;;;;;14.85;80.69;100370.69;5050163;28;20289;-82
2021/08/26 03:41:44;;;;;;;9.23;3.77;;;;;;;14.82;80.97;100373.63;5057754;28;20205;-82
2021/08/26 03:44:12;;;;;;;14.93;5.00;;;;;;;14.81;80.54;100379.97;5052942;28;20304;-82
2021/08/26 03:46:39;;;;;;;13.10;3.73;;;;;;;14.80;80.82;100380.97;5052051;28;20210;-82
2021/08/26 03:49:05;;;;;;;13.50;4.53;;;;;;;14.77;80.83;100382.06;5055468;28;20252;-82
2021/08/26 03:51:32;;;;;;;14.97;4.40;;;;;;;14.78;81.25;100389.13;5056817;28;20592;-81
2021/08/26 03:53:59;;;;;;;11.10;4.13;;;;;;;14.78;81.12;100377.56;5054708;28;20267;-81
2021/08/26 03:56:25;;;;;;;12.37;4.23;;;;;;;14.78;80.94;100377.56;5055189;28;20225;-82
2021/08/26 03:58:52;;;;;;;14.70;4.27;;;;;;;14.78;81.00;100375.72;5052654;28;20221;-82
2021/08/26 04:01:20;;;;;;;16.77;4.30;;;;;;;14.76;81.01;100385.72;5054333;28;20208;-82
2021/08/26 04:03:46;;;;;;;11.17;3.60;;;;;;;14.74;81.02;100376.09;5056353;28;20206;-82
2021/08/26 04:06:13;;;;;;;17.53;4.90;;;;;;;14.75;81.35;100367.09;5051041;28;20210;-82
2021/08/26 04:08:40;;;;;;;12.60;4.10;;;;;;;14.75;81.18;100369.75;5053271;28;20695;-82
2021/08/26 04:11:07;;;;;;;14.93;4.13;;;;;;;14.72;81.13;100372.69;5049402;28;20203;-80
2021/08/26 04:13:34;;;;;;;12.23;3.30;;;;;;;14.70;81.23;100377.34;5055030;28;20206;-80
2021/08/26 04:16:00;;;;;;;15.17;4.43;;;;;;;14.67;81.34;100370.44;5055987;28;20202;-82
2021/08/26 04:18:28;;;;;;;17.90;4.47;;;;;;;14.65;81.02;100374.22;5053978;28;20221;-82
2021/08/26 04:20:55;;;;;;;12.50;3.67;;;;;;;14.60;80.98;100366.56;5051866;28;20640;-82
2021/08/26 04:23:21;;;;;;;11.17;4.03;;;;;;;14.57;81.29;100364.13;5056783;28;20193;-82
2021/08/26 04:25:48;;;;;;;12.50;3.57;;;;;;;14.53;81.09;100360.84;5054064;28;20207;-82
2021/08/26 04:28:14;;;;;;;10.97;3.97;;;;;;;14.50;81.47;100358.47;5055309;28;20297;-82
2021/08/26 04:30:41;;;;;;;14.63;3.47;;;;;;;14.47;81.70;100358.72;5048564;28;20655;-84
2021/08/26 04:33:07;;;;;;;12.00;3.73;;;;;;;14.45;81.20;100351.78;5055652;28;20209;-82
2021/08/26 04:35:35;;;;;;;15.13;3.53;;;;;;;14.44;81.38;100356.28;5052677;28;20206;-80
2021/08/26 04:38:02;;;;;;;16.57;3.53;;;;;;;14.41;81.81;100345.81;5050177;28;20260;-80
2021/08/26 04:40:28;;;;;;;13.93;3.93;;;;;;;14.40;81.81;100351.28;5046658;28;20205;-81
2021/08/26 04:42:55;;;;;;;11.97;3.90;;;;;;;14.38;81.58;100348.72;5051782;28;20201;-81
2021/08/26 04:45:21;;;;;;;12.57;3.90;;;;;;;14.35;81.64;100354.31;5049037;28;20669;-80
2021/08/26 04:47:48;;;;;;;13.27;4.20;;;;;;;14.33;82.06;100358.97;5044869;28;20229;-80
2021/08/26 04:50:15;;;;;;;10.53;3.97;;;;;;;14.30;82.04;100351.22;5052537;28;20218;-80
2021/08/26 04:52:43;;;;;;;15.77;3.77;;;;;;;14.29;81.98;100354.00;5050452;28;20218;-82
2021/08/26 04:55:10;;;;;;;10.23;3.90;;;;;;;14.25;82.09;100358.75;5052457;28;20197;-80
2021/08/26 04:57:36;;;;;;;15.23;4.30;;;;;;;14.22;82.34;100356.34;5047193;28;20569;-82
2021/08/26 05:00:04;;;;;;;11.77;3.53;;;;;;;14.20;82.66;100360.97;5044712;28;20216;-81
2021/08/26 05:02:30;;;;;;;10.77;3.90;;;;;;;14.19;82.29;100364.63;5049157;28;20640;-82
2021/08/26 05:04:57;;;;;;;18.80;3.80;;;;;;;14.15;82.95;100364.03;5048593;28;20210;-82
2021/08/26 05:07:24;;;;;;;14.07;4.13;;;;;;;14.14;83.35;100369.53;5046591;28;20221;-81
2021/08/26 05:09:52;;;;;;;16.00;4.00;;;;;;;14.14;83.25;100370.38;5044702;28;20229;-82
2021/08/26 05:12:18;;;;;;;15.13;3.57;;;;;;;14.15;83.21;100377.41;5045968;28;20202;-82
2021/08/26 05:14:45;;;;;;;14.30;4.37;;;;;;;14.15;83.47;100384.63;5046032;28;20285;-81
2021/08/26 05:17:12;;;;;;;14.53;3.97;;;;;;;14.15;83.76;100387.31;5047116;28;20213;-81
2021/08/26 05:19:43;;;;;;;14.03;4.23;;;;;;;14.15;83.61;100388.13;5040637;28;20251;-81
2021/08/26 05:22:10;;;;;;;17.07;3.93;;;;;;;14.17;83.61;100390.69;5045272;28;20199;-82
2021/08/26 05:24:43;;;;;;;18.47;4.03;;;;;;;14.17;84.19;100388.84;5045713;28;20889;-81
2021/08/26 05:27:17;;;;;;;16.00;3.67;;;;;;;14.18;83.70;100387.03;5045516;28;20290;-83
2021/08/26 05:29:44;;;;;;;12.97;3.53;;;;;;;14.20;83.87;100398.47;5041957;28;20594;-82
2021/08/26 05:32:10;;;;;;;15.10;4.23;;;;;;;14.21;83.98;100398.34;5046518;28;20206;-83
2021/08/26 05:34:37;;;;;;;12.03;3.93;;;;;;;14.24;84.25;100391.88;5043817;28;20710;-81
2021/08/26 05:37:04;;;;;;;16.93;3.87;;;;;;;14.25;84.08;100391.75;5044620;28;20604;-81
2021/08/26 05:39:30;;;;;;;13.40;3.83;;;;;;;14.29;84.39;100394.19;5050861;28;20204;-82
2021/08/26 05:41:59;;;;;;;16.90;4.10;;;;;;;14.30;84.45;100394.06;5042606;28;20298;-82
2021/08/26 05:44:26;;;;;;;12.93;3.83;;;;;;;14.34;83.95;100391.97;5047755;28;20205;-82
2021/08/26 05:46:56;;;;;;;15.63;4.27;;;;;;;14.35;83.94;100391.84;5047405;28;20202;-83
2021/08/26 05:49:22;;;;;;;18.73;3.77;;;;;;;14.37;84.27;100394.38;5043044;28;20221;-82
2021/08/26 05:51:52;;;;;;;15.37;3.87;;;;;;;14.41;84.38;100390.53;5049553;28;20239;-80
2021/08/26 05:54:19;;;;;;;19.50;4.40;;;;;;;14.43;84.10;100388.56;5048473;28;20206;-81
2021/08/26 05:56:46;;;;;;;10.53;3.53;;;;;;;14.45;84.23;100397.31;5047391;28;20201;-82
2021/08/26 05:59:37;;;;;;;15.93;3.63;;;;;;;14.48;84.40;100397.06;5045599;28;20699;-82
2021/08/26 06:02:05;;;;;;;10.60;3.30;;;;;;;14.51;84.08;100400.31;5041627;28;20197;-82
2021/08/26 06:04:32;;;;;;;15.93;4.33;;;;;;;14.52;84.38;100399.34;5045604;28;20237;-81
2021/08/26 06:06:58;;;;;;;10.77;4.00;;;;;;;14.56;84.13;100400.81;5046393;28;20202;-82
2021/08/26 06:09:25;;;;;;;13.83;4.27;;;;;;;14.58;83.88;100401.53;5047840;28;20559;-82
2021/08/26 06:11:51;;;;;;;14.03;3.93;;;;;;;14.59;84.06;100397.88;5047422;28;20205;-82
2021/08/26 06:14:18;;;;;;;9.10;3.83;;;;;;;14.63;83.93;100392.25;5043693;28;20206;-82
2021/08/26 06:16:44;;;;;;;17.80;3.97;;;;;;;14.65;84.10;100387.63;5047005;28;20213;-82
2021/08/26 06:19:12;;;;;;;21.33;4.87;;;;;;;14.69;83.92;100391.75;5052955;28;20225;-82
2021/08/26 06:21:39;;;;;;;11.63;3.80;;;;;;;14.73;84.08;100390.50;5048053;28;20210;-82
2021/08/26 06:24:07;;;;;;;16.37;4.80;;;;;;;14.76;83.95;100391.09;5048860;28;20278;-82
2021/08/26 06:26:34;;;;;;;20.53;3.90;;;;;;;14.83;83.83;100375.34;5041843;28;20206;-82
2021/08/26 06:29:00;;;;;;;17.83;4.63;;;;;;;14.86;83.51;100375.09;5043752;28;20226;-82
2021/08/26 06:31:27;;;;;;;16.77;4.33;;;;;;;14.91;83.23;100368.31;5054012;28;20221;-82
2021/08/26 06:33:53;;;;;;;17.60;4.37;;;;;;;15.00;83.34;100374.75;5043274;28;20286;-82
2021/08/26 06:36:21;;;;;;;15.40;4.50;;;;;;;15.07;83.33;100359.81;5046550;28;20441;-82
2021/08/26 06:38:48;;;;;;;19.20;5.00;;;;;;;15.12;83.13;100365.63;5052769;28;20217;-82
2021/08/26 06:41:14;;;;;;;22.77;5.07;;;;;;;15.19;82.72;100371.31;5051092;28;20212;-82
2021/08/26 06:43:41;;;;;;;13.43;4.80;;;;;;;15.25;82.44;100376.13;5054107;28;20214;-82
2021/08/26 06:46:08;;;;;;;16.30;4.77;;;;;;;15.31;82.44;100359.50;5052561;28;20237;-82
2021/08/26 06:48:34;;;;;;;16.73;4.10;;;;;;;15.42;82.24;100355.88;5052779;28;20230;-82
2021/08/26 06:51:01;;;;;;;18.17;4.20;;;;;;;15.51;82.14;100371.16;5048021;28;20715;-83
2021/08/26 06:53:29;;;;;;;16.63;4.90;;;;;;;15.59;82.10;100374.03;5049769;28;20204;-82
2021/08/26 06:55:55;;;;;;;18.63;4.50;;;;;;;15.65;81.84;100373.50;5053215;28;20286;-82
2021/08/26 06:58:22;;;;;;;18.67;5.60;;;;;;;15.68;80.99;100380.44;5053772;28;20221;-83
2021/08/26 07:00:48;;;;;;;14.10;4.67;;;;;;;15.67;80.79;100390.34;5049816;28;20301;-83
2021/08/26 07:03:15;;;;;;;14.47;4.30;;;;;;;15.68;80.29;100389.34;5054830;28;20207;-83
2021/08/26 07:05:41;;;;;;;19.10;5.87;;;;;;;15.69;80.19;100388.38;5051756;28;20268;-83
2021/08/26 07:08:08;;;;;;;12.57;5.27;;;;;;;15.70;80.14;100384.69;5053640;28;20229;-83
2021/08/26 07:10:36;;;;;;;19.03;5.83;;;;;;;15.72;79.96;100388.09;5046547;28;20229;-82
2021/08/26 07:13:03;;;;;;;20.30;5.97;;;;;;;15.75;79.85;100395.03;5046596;28;20285;-82
2021/08/26 07:15:29;;;;;;;11.87;4.77;;;;;;;15.75;80.15;100401.25;5050419;28;20217;-82
2021/08/26 07:17:56;;;;;;;28.33;5.97;;;;;;;15.78;79.79;100406.34;5045565;28;20590;-83
2021/08/26 07:20:22;;;;;;;21.70;5.90;;;;;;;15.81;79.71;100405.22;5049295;28;20207;-82
2021/08/26 07:22:49;;;;;;;14.87;5.67;;;;;;;15.79;79.36;100397.28;5050296;28;20207;-82
2021/08/26 07:25:16;;;;;;;29.07;5.60;;;;;;;15.81;79.50;100389.09;5056237;28;20206;-81
2021/08/26 07:27:45;;;;;;;17.30;5.17;;;;;;;15.85;79.65;100388.69;5052947;28;20245;-81
2021/08/26 07:30:12;;;;;;;16.43;6.10;;;;;;;15.89;79.70;100391.97;5047320;28;20281;-82
2021/08/26 07:32:38;;;;;;;16.13;6.33;;;;;;;15.96;79.60;100398.47;5050405;28;20209;-82
2021/08/26 07:35:06;;;;;;;23.77;5.30;;;;;;;16.00;79.39;100397.22;5051753;28;20215;-82
2021/08/26 07:37:33;;;;;;;20.43;5.90;;;;;;;16.03;79.03;100396.09;5054778;28;20314;-82
2021/08/26 07:39:59;;;;;;;12.33;5.60;;;;;;;16.04;78.97;100389.72;5053062;28;20287;-82
2021/08/26 07:42:26;;;;;;;16.93;5.73;;;;;;;16.06;78.96;100383.25;5048600;28;20208;-82
2021/08/26 07:44:54;;;;;;;16.20;5.33;;;;;;;16.09;78.99;100382.97;5050266;28;20199;-82
2021/08/26 07:47:20;;;;;;;17.23;5.63;;;;;;;16.13;78.90;100380.81;5044198;28;20825;-82
2021/08/26 07:49:47;;;;;;;19.23;5.20;;;;;;;16.14;78.61;100369.94;5052249;28;20205;-82
2021/08/26 07:52:13;;;;;;;18.13;5.73;;;;;;;16.19;78.80;100370.38;5053934;28;20211;-82
2021/08/26 07:54:40;;;;;;;18.27;5.87;;;;;;;16.25;78.85;100360.91;5052911;28;20665;-82
2021/08/26 07:57:06;;;;;;;18.73;5.63;;;;;;;16.31;78.48;100358.50;5058746;28;20202;-82
2021/08/26 07:59:33;;;;;;;16.43;6.20;;;;;;;16.35;78.35;100360.91;5048613;28;20209;-83
2021/08/26 08:02:01;;;;;;;18.80;6.00;;;;;;;16.42;78.17;100356.69;5048664;28;20245;-82
2021/08/26 08:04:28;;;;;;;18.87;6.27;;;;;;;16.42;77.80;100345.94;5054067;28;20207;-82
2021/08/26 08:06:54;;;;;;;16.03;6.10;;;;;;;16.46;77.48;100341.97;5052708;28;20209;-82
2021/08/26 08:09:21;;;;;;;16.93;6.00;;;;;;;16.48;77.49;100345.38;5054333;28;20224;-82
2021/08/26 08:11:47;;;;;;;17.60;6.20;;;;;;;16.52;77.23;100339.53;5058160;28;20313;-82
2021/08/26 08:14:14;;;;;;;12.10;5.97;;;;;;;16.56;77.08;100345.50;5055885;28;20298;-82
2021/08/26 08:16:41;;;;;;;14.63;6.07;;;;;;;16.60;77.04;100346.91;5050506;28;20212;-83
2021/08/26 08:19:08;;;;;;;11.83;5.80;;;;;;;16.66;76.77;100352.56;5061179;28;20247;-83
2021/08/26 08:21:35;;;;;;;19.50;5.90;;;;;;;16.72;76.69;100358.38;5051681;28;20347;-83
2021/08/26 08:24:02;;;;;;;21.17;6.60;;;;;;;16.76;76.31;100359.81;5057858;28;20213;-82
2021/08/26 08:26:28;;;;;;;11.17;5.87;;;;;;;16.80;75.97;100361.22;5063667;28;20214;-81
2021/08/26 08:28:55;;;;;;;14.20;5.43;;;;;;;16.82;76.03;100354.69;5056900;28;20230;-82
2021/08/26 08:31:21;;;;;;;19.30;6.23;;;;;;;16.85;75.72;100369.69;5054769;28;20223;-83
2021/08/26 08:33:48;;;;;;;19.33;5.77;;;;;;;16.89;75.38;100373.78;5056902;28;20204;-82
2021/08/26 08:36:17;;;;;;;14.43;5.43;;;;;;;16.91;75.32;100375.34;5052596;28;20245;-83
2021/08/26 08:38:43;;;;;;;19.93;6.37;;;;;;;16.93;75.20;100376.06;5057316;28;20232;-83
2021/08/26 08:41:10;;;;;;;16.77;6.10;;;;;;;16.98;75.10;100375.63;5055284;28;20303;-84
2021/08/26 08:43:36;;;;;;;19.90;6.23;;;;;;;17.01;75.19;100369.97;5050801;28;20222;-83
2021/08/26 08:46:04;;;;;;;14.00;5.20;;;;;;;17.07;74.93;100373.88;5058730;28;20213;-83
2021/08/26 08:48:35;;;;;;;12.20;5.57;;;;;;;17.14;75.13;100375.00;5044183;28;20310;-83
2021/08/26 08:51:02;;;;;;;16.90;5.70;;;;;;;17.25;75.28;100372.13;5048674;28;20272;-83
2021/08/26 08:53:31;;;;;;;15.53;7.10;;;;;;;17.36;75.07;100371.97;5043980;28;20301;-83
2021/08/26 08:55:57;;;;;;;14.83;5.43;;;;;;;17.47;74.71;100379.84;5047059;28;20203;-83
2021/08/26 08:58:24;;;;;;;14.20;4.83;;;;;;;17.61;74.32;100367.75;5051048;28;20231;-83
2021/08/26 09:00:52;;;;;;;20.63;6.17;;;;;;;17.77;73.99;100375.19;5055755;28;20682;-83
2021/08/26 09:03:18;;;;;;;15.10;5.47;;;;;;;17.87;73.61;100378.72;5058171;28;20216;-83
2021/08/26 09:05:55;;;;;;;17.00;5.43;;;;;;;17.94;72.94;100379.78;5057982;28;20577;-83
2021/08/26 09:08:22;;;;;;;14.03;5.43;;;;;;;17.97;72.41;100379.50;5047465;28;20342;-84
2021/08/26 09:10:52;;;;;;;15.37;5.60;;;;;;;18.02;72.18;100380.75;5043897;28;20248;-82
2021/08/26 09:13:28;;;;;;;13.07;5.03;;;;;;;18.07;71.88;100384.84;5050689;28;20211;-82
2021/08/26 09:15:55;;;;;;;14.77;5.27;;;;;;;18.08;71.56;100376.59;5047869;28;20200;-83
2021/08/26 09:18:21;;;;;;;17.37;5.67;;;;;;;18.08;71.30;100375.75;5043767;28;20230;-83
2021/08/26 09:20:53;;;;;;;15.37;5.10;;;;;;;18.09;71.15;100380.16;5052427;28;20206;-83
2021/08/26 09:23:20;;;;;;;22.83;6.03;;;;;;;18.08;71.17;100387.38;5054985;28;20214;-83
2021/08/26 09:25:47;;;;;;;12.20;5.07;;;;;;;18.17;71.35;100380.22;5045340;28;20293;-83
2021/08/26 09:28:30;;;;;;;16.87;5.30;;;;;;;18.27;71.47;100371.03;5046496;28;20219;-83
2021/08/26 09:31:10;;;;;;;15.23;5.53;;;;;;;18.39;71.25;100371.69;5046967;28;20230;-85
2021/08/26 09:33:51;;;;;;;13.20;5.57;;;;;;;18.43;70.80;100375.78;5043477;28;20205;-85
2021/08/26 09:36:21;;;;;;;15.27;5.10;;;;;;;18.45;70.00;100367.53;5051028;28;20200;-84
2021/08/26 09:38:53;;;;;;;13.67;5.53;;;;;;;18.45;70.36;100368.34;5046538;28;20234;-84
2021/08/26 09:41:35;;;;;;;15.00;5.63;;;;;;;18.44;69.43;100364.00;5050974;28;20212;-84
2021/08/26 09:44:05;;;;;;;12.17;5.20;;;;;;;18.45;69.00;100360.25;5044597;28;20206;-84
2021/08/26 09:46:32;;;;;;;13.30;5.57;;;;;;;18.45;68.64;100368.34;5056160;28;20699;-85
2021/08/26 09:49:03;;;;;;;12.43;5.07;;;;;;;18.49;68.63;100368.91;5053330;28;20232;-86
2021/08/26 09:51:30;;;;;;;16.10;5.43;;;;;;;18.52;68.47;100369.44;5055457;28;20654;-84
2021/08/26 09:53:57;;;;;;;10.90;5.50;;;;;;;18.59;68.57;100373.25;5049180;28;20228;-83
2021/08/26 09:56:23;;;;;;;17.73;5.53;;;;;;;18.67;68.36;100367.91;5066502;28;20753;-84
2021/08/26 09:58:54;;;;;;;12.03;5.33;;;;;;;18.72;67.96;100357.50;5060076;28;20750;-84
2021/08/26 10:01:23;;;;;;;14.40;5.60;;;;;;;18.78;67.81;100357.91;5062126;28;20212;-84
2021/08/26 10:03:51;;;;;;;11.67;5.70;;;;;;;18.84;67.46;100346.44;5052110;28;20226;-85
2021/08/26 10:06:19;;;;;;;13.93;4.80;;;;;;;18.90;67.05;100345.84;5056536;28;20207;-85
2021/08/26 10:08:47;;;;;;;10.57;5.50;;;;;;;18.94;66.66;100339.13;5054139;28;20228;-84
2021/08/26 10:11:17;;;;;;;15.83;5.67;;;;;;;18.95;66.11;100344.38;5050917;28;20225;-84
2021/08/26 10:13:44;;;;;;;10.47;5.40;;;;;;;18.94;65.66;100345.38;5047062;28;20637;-84
2021/08/26 10:16:11;;;;;;;13.77;4.97;;;;;;;18.98;65.92;100348.59;5050948;28;20207;-84
2021/08/26 10:18:39;;;;;;;12.30;4.90;;;;;;;19.00;65.42;100352.81;5048916;28;20316;-84
2021/08/26 10:21:08;;;;;;;10.23;4.93;;;;;;;19.01;64.98;100350.97;5055892;28;20271;-84
2021/08/26 10:23:37;;;;;;;11.00;4.97;;;;;;;18.98;65.12;100351.31;5059457;28;20208;-84
2021/08/26 10:26:06;;;;;;;12.73;4.30;;;;;;;18.97;65.13;100346.91;5053783;28;20199;-85
2021/08/26 10:28:40;;;;;;;12.37;4.40;;;;;;;18.98;64.76;100362.94;5053815;28;20227;-85
2021/08/26 10:31:25;;;;;;;11.37;4.40;;;;;;;18.99;64.66;100361.91;5053101;28;20282;-85
2021/08/26 10:34:08;;;;;;;8.70;4.13;;;;;;;19.01;64.29;100367.16;5048163;28;20243;-84
2021/08/26 10:36:43;;;;;;;9.53;4.47;;;;;;;19.03;64.04;100373.25;5057635;28;20281;-84
2021/08/26 10:39:25;;;;;;;11.33;3.90;;;;;;;19.07;63.87;100359.28;5061851;28;20678;-84
2021/08/26 10:41:52;;;;;;;11.60;4.97;;;;;;;19.13;63.86;100360.50;5045908;28;20209;-85
2021/08/26 10:44:18;;;;;;;9.57;4.13;;;;;;;19.17;63.99;100361.03;5049498;28;20208;-84
2021/08/26 10:46:53;;;;;;;7.37;3.93;;;;;;;19.18;64.20;100362.72;5046852;28;20216;-84
2021/08/26 10:49:22;;;;;;;12.83;4.07;;;;;;;19.14;63.93;100369.44;5047350;28;20310;-83
2021/08/26 10:51:51;;;;;;;13.27;4.50;;;;;;;19.05;63.92;100365.84;5052991;28;20224;-83
2021/08/26 10:54:30;;;;;;;11.53;3.63;;;;;;;18.97;64.31;100369.34;5047447;28;20640;-84
2021/08/26 10:56:58;;;;;;;11.10;4.00;;;;;;;18.84;64.79;100373.44;5041005;28;20249;-86
2021/08/26 10:59:30;;;;;;;13.13;5.30;;;;;;;18.80;65.84;100374.78;5049518;28;20241;-83
2021/08/26 11:01:56;;;;;;;11.33;5.10;;;;;;;18.75;67.14;100371.69;5045311;28;20308;-86
2021/08/26 11:04:30;;;;;;;8.60;2.70;;;;;;;18.63;67.05;100353.03;5051760;28;20218;-85
2021/08/26 11:06:58;;;;;;;6.13;2.87;;;;;;;18.50;66.96;100352.56;5050768;28;20683;-87
2021/08/26 11:09:45;;;;;;;8.20;3.00;;;;;;;18.35;66.86;100351.41;5049385;28;20258;-84
2021/08/26 11:12:28;;;;;;;6.40;3.20;;;;;;;18.24;67.37;100362.44;5037297;28;20902;-84
2021/08/26 11:15:01;;;;;;;8.70;3.60;;;;;;;18.19;68.16;100362.03;5048940;28;20653;-84
2021/08/26 11:17:34;;;;;;;5.37;2.30;;;;;;;18.15;68.27;100360.66;5053040;28;20917;-85
2021/08/26 11:20:29;;;;;;;5.60;2.77;;;;;;;18.02;68.07;100359.19;5051781;28;20285;-84
2021/08/26 11:23:15;;;;;;;9.13;2.80;;;;;;;17.93;68.38;100362.78;5047179;28;20201;-84
2021/08/26 11:25:41;;;;;;;4.23;1.70;;;;;;;17.84;67.54;100360.16;5046033;28;20204;-85
2021/08/26 11:28:28;;;;;;;2.57;1.37;;;;;;;17.70;66.85;100361.50;5045187;28;20227;-85